Time;durP1;ratioP1;P1;durP2;ratioP2;P2;SDS_P1;SDS_P2;PMS_P1;PMS_P2;Temp;Humidity;BMP_temperature;BMP_pressure;BME280_temperature;BME280_humidity;BME280_pressure;Samples;Min_cycle;Max_cycle;Signal;HPM_P1;HPM_P2
2022/11/15 10:46:19;;;;;;;13.80;9.13;;;20.40;62.00;;;;;;5022412;27;20474;-75
2022/11/15 10:48:45;;;;;;;19.13;8.15;;;20.60;64.60;;;;;;5031290;23;20527;-76
2022/11/15 10:51:25;;;;;;;18.38;8.75;;;20.70;64.50;;;;;;5057980;28;20061;-75
2022/11/15 10:53:52;;;;;;;28.88;13.05;;;20.70;64.60;;;;;;5069630;28;20113;-76
2022/11/15 10:56:22;;;;;;;23.45;11.50;;;20.80;64.90;;;;;;5069534;28;20021;-77
2022/11/15 10:58:57;;;;;;;21.08;9.68;;;20.80;65.90;;;;;;5069818;28;20058;-76
2022/11/15 11:01:25;;;;;;;614.95;128.93;;;20.90;63.90;;;;;;5070443;28;20036;-76
2022/11/15 11:04:03;;;;;;;427.52;60.42;;;20.90;66.80;;;;;;5088556;28;20397;-76
2022/11/15 11:06:29;;;;;;;525.25;133.63;;;20.90;65.70;;;;;;5087929;28;20028;-76
2022/11/15 11:09:01;;;;;;;379.75;89.50;;;20.90;66.80;;;;;;5087498;28;20082;-77
2022/11/15 11:11:51;;;;;;;467.63;132.82;;;20.90;65.50;;;;;;5030376;28;20046;-77
2022/11/15 11:14:27;;;;;;;410.00;127.15;;;21.00;64.80;;;;;;5085578;28;20599;-77
2022/11/15 11:17:11;;;;;;;387.30;119.10;;;21.00;66.30;;;;;;5084955;28;20028;-78
2022/11/15 11:19:40;;;;;;;383.02;117.90;;;21.00;66.20;;;;;;5085826;28;20036;-77
2022/11/15 11:22:06;;;;;;;391.48;124.57;;;21.00;66.00;;;;;;5085368;28;20054;-76
2022/11/15 11:24:54;;;;;;;332.92;110.15;;;20.90;65.60;;;;;;5085925;28;20036;-77
2022/11/15 11:27:20;;;;;;;306.63;106.30;;;20.90;65.50;;;;;;5085145;28;20101;-77
2022/11/15 11:30:18;;;;;;;313.60;106.65;;;20.90;65.00;;;;;;5085750;28;20474;-76
2022/11/15 11:32:59;;;;;;;317.40;105.30;;;20.90;64.90;;;;;;5067777;28;20032;-76
2022/11/15 11:35:54;;;;;;;305.92;104.03;;;20.90;64.90;;;;;;5067149;28;20090;-76
2022/11/15 11:38:32;;;;;;;279.80;95.47;;;20.80;64.80;;;;;;5085316;28;20051;-76
2022/11/15 11:41:34;;;;;;;289.13;99.22;;;20.80;64.50;;;;;;5067271;28;20551;-77
2022/11/15 11:44:23;;;;;;;296.55;103.78;;;20.80;64.40;;;;;;5085506;28;20485;-76
2022/11/15 11:46:56;;;;;;;258.70;91.37;;;20.80;64.30;;;;;;5073827;28;20115;-75
2022/11/15 11:49:42;;;;;;;274.33;96.57;;;20.90;63.50;;;;;;5052561;28;20025;-75
2022/11/15 11:52:12;;;;;;;198.48;85.70;;;20.90;64.20;;;;;;5068616;28;20028;-76
2022/11/15 11:54:58;;;;;;;104.22;52.15;;;20.80;63.70;;;;;;5071499;28;20036;-75
2022/11/15 11:57:38;;;;;;;129.45;54.17;;;20.70;59.60;;;;;;5071470;28;20043;-75
2022/11/15 12:00:13;;;;;;;98.70;43.97;;;20.60;59.00;;;;;;5068237;28;20520;-75
2022/11/15 12:02:44;;;;;;;129.98;56.17;;;20.60;58.70;;;;;;5071594;28;20035;-75
2022/11/15 12:05:27;;;;;;;118.53;50.10;;;20.60;59.90;;;;;;5071634;28;20074;-75
2022/11/15 12:07:58;;;;;;;118.35;50.35;;;20.60;60.80;;;;;;5071484;28;20058;-75
2022/11/15 12:10:29;;;;;;;112.30;47.75;;;20.60;60.70;;;;;;5069370;28;20028;-76
2022/11/15 12:13:06;;;;;;;116.88;48.03;;;20.60;60.90;;;;;;5071246;28;20028;-75
2022/11/15 12:16:04;;;;;;;114.55;47.95;;;20.70;61.10;;;;;;5051513;28;20083;-75
2022/11/15 12:18:30;;;;;;;105.97;45.47;;;20.70;61.40;;;;;;5033637;28;20029;-75
2022/11/15 12:21:01;;;;;;;110.75;45.65;;;20.70;61.50;;;;;;5033481;28;20032;-75
2022/11/15 12:23:30;;;;;;;102.30;45.58;;;20.70;61.60;;;;;;5051506;28;20025;-75
2022/11/15 12:26:17;;;;;;;102.57;46.27;;;20.70;61.90;;;;;;5049921;28;20033;-76
2022/11/15 12:28:54;;;;;;;101.00;45.05;;;20.70;61.90;;;;;;5033503;28;20264;-75
2022/11/15 12:31:45;;;;;;;101.97;44.10;;;20.70;62.00;;;;;;5051134;28;20113;-75
2022/11/15 12:34:17;;;;;;;102.50;44.75;;;20.70;62.40;;;;;;5051326;28;20449;-75
2022/11/15 12:36:44;;;;;;;106.75;44.80;;;20.70;62.50;;;;;;5051575;28;20021;-75
2022/11/15 12:39:11;;;;;;;101.50;45.13;;;20.70;62.60;;;;;;5051422;28;20232;-75
2022/11/15 12:41:40;;;;;;;88.18;42.38;;;20.70;62.40;;;;;;5051148;28;20051;-75
2022/11/15 12:44:12;;;;;;;94.32;42.65;;;20.70;62.60;;;;;;5050949;28;20028;-76
2022/11/15 12:46:41;;;;;;;90.05;42.53;;;20.70;62.90;;;;;;5050326;28;20047;-75
2022/11/15 12:49:23;;;;;;;94.53;42.33;;;20.70;62.90;;;;;;5050743;28;20037;-75
2022/11/15 12:51:49;;;;;;;87.47;42.10;;;20.70;63.00;;;;;;5049748;28;20052;-75
2022/11/15 12:54:23;;;;;;;92.35;42.00;;;20.80;63.00;;;;;;5050673;28;20485;-75
2022/11/15 12:57:07;;;;;;;87.35;39.70;;;20.70;63.20;;;;;;5031517;28;20460;-75
2022/11/15 12:59:57;;;;;;;86.50;41.03;;;20.70;62.90;;;;;;5054980;28;20024;-75
2022/11/15 13:02:38;;;;;;;85.47;39.22;;;20.70;63.10;;;;;;5065775;28;20036;-75
2022/11/15 13:05:14;;;;;;;89.03;39.70;;;20.70;63.50;;;;;;5070257;28;20025;-75
2022/11/15 13:07:39;;;;;;;82.63;40.33;;;20.70;63.30;;;;;;5035827;28;20087;-75
2022/11/15 13:10:26;;;;;;;84.13;39.47;;;20.70;63.30;;;;;;5070392;28;20072;-75
2022/11/15 13:12:59;;;;;;;78.80;39.28;;;20.70;63.30;;;;;;5052352;28;20081;-75
2022/11/15 13:15:31;;;;;;;90.88;38.25;;;20.70;63.40;;;;;;5070245;28;20024;-75
2022/11/15 13:17:57;;;;;;;82.38;40.30;;;20.70;63.50;;;;;;5070134;28;20028;-75
2022/11/15 13:20:26;;;;;;;80.30;38.97;;;20.70;63.30;;;;;;5070070;28;20117;-75
2022/11/15 13:23:12;;;;;;;76.90;38.60;;;20.70;63.40;;;;;;5069650;28;20028;-75
2022/11/15 13:25:50;;;;;;;76.07;38.22;;;20.70;63.40;;;;;;5070058;28;20082;-76
2022/11/15 13:28:15;;;;;;;82.07;38.45;;;20.70;63.20;;;;;;5070164;28;20032;-76
2022/11/15 13:31:13;;;;;;;77.95;37.42;;;20.70;63.20;;;;;;5070116;28;20524;-76
2022/11/15 13:33:39;;;;;;;72.22;37.22;;;20.70;63.40;;;;;;5069619;28;20393;-75
2022/11/15 13:36:17;;;;;;;74.13;35.78;;;20.70;63.30;;;;;;5069893;28;20024;-75
2022/11/15 13:38:43;;;;;;;76.85;37.95;;;20.70;63.40;;;;;;5069908;28;20024;-75
2022/11/15 13:41:21;;;;;;;72.88;35.63;;;20.70;63.60;;;;;;5069779;28;20549;-75
2022/11/15 13:43:49;;;;;;;74.80;37.25;;;20.70;63.70;;;;;;5056011;28;20032;-74
2022/11/15 13:46:27;;;;;;;75.13;35.70;;;20.70;63.20;;;;;;5059294;28;20036;-75
2022/11/15 13:49:00;;;;;;;74.63;36.78;;;20.70;63.80;;;;;;5069514;28;20029;-75
2022/11/15 13:51:44;;;;;;;68.35;35.40;;;20.70;63.50;;;;;;5069893;28;20058;-75
2022/11/15 13:54:26;;;;;;;71.95;35.38;;;20.70;63.60;;;;;;5067889;28;20039;-75
2022/11/15 13:56:57;;;;;;;71.85;34.35;;;20.70;63.90;;;;;;5060679;28;20025;-75
2022/11/15 13:59:31;;;;;;;67.75;34.63;;;20.70;63.90;;;;;;5039994;28;20501;-75
2022/11/15 14:02:02;;;;;;;66.18;34.03;;;20.70;63.70;;;;;;5040551;28;20033;-75
2022/11/15 14:04:29;;;;;;;68.60;34.65;;;20.70;63.90;;;;;;5039670;28;20088;-75
2022/11/15 14:06:57;;;;;;;66.78;34.05;;;20.70;63.90;;;;;;5022473;28;20043;-75
2022/11/15 14:09:35;;;;;;;63.40;33.53;;;20.70;63.80;;;;;;5041948;28;20035;-75
2022/11/15 14:12:20;;;;;;;66.18;33.70;;;20.70;63.50;;;;;;5042582;28;20029;-75
2022/11/15 14:14:46;;;;;;;68.63;35.40;;;20.70;63.80;;;;;;5042718;28;20025;-75
2022/11/15 14:17:41;;;;;;;64.93;33.92;;;20.60;63.60;;;;;;5040644;28;20058;-75
2022/11/15 14:20:40;;;;;;;65.88;33.25;;;20.70;64.00;;;;;;5031448;28;20041;-75
2022/11/15 14:23:27;;;;;;;66.10;34.92;;;20.70;64.00;;;;;;5018495;28;20075;-76
2022/11/15 14:25:54;;;;;;;68.43;33.90;;;20.70;63.90;;;;;;5065275;28;20382;-82
2022/11/15 14:28:23;;;;;;;65.32;33.75;;;20.70;64.00;;;;;;5069307;28;20561;-79
2022/11/15 14:30:51;;;;;;;70.43;31.50;;;20.70;64.00;;;;;;5051384;28;20024;-76
2022/11/15 14:33:19;;;;;;;76.18;29.98;;;20.70;64.30;;;;;;5069119;28;20035;-75
2022/11/15 14:35:45;;;;;;;66.78;32.17;;;20.70;64.20;;;;;;5049886;28;20174;-77
2022/11/15 14:38:11;;;;;;;70.10;33.70;;;20.80;65.20;;;;;;5050943;28;20108;-81
2022/11/15 14:40:37;;;;;;;60.63;31.92;;;20.80;65.70;;;;;;5030793;28;20032;-80
2022/11/15 14:43:02;;;;;;;49.22;30.25;;;20.70;64.10;;;;;;5066428;28;20125;-82
2022/11/15 14:45:28;;;;;;;31.73;22.42;;;20.60;59.70;;;;;;5067727;28;20138;-81
2022/11/15 14:47:54;;;;;;;34.38;19.60;;;20.50;58.20;;;;;;5068693;28;20029;-81
2022/11/15 14:50:21;;;;;;;27.05;16.98;;;20.40;57.00;;;;;;5054420;28;20501;-81
2022/11/15 14:52:48;;;;;;;32.30;17.45;;;20.30;56.40;;;;;;5053140;28;20546;-76
2022/11/15 14:55:20;;;;;;;25.70;15.88;;;20.30;57.00;;;;;;5049952;28;20112;-76
2022/11/15 14:57:46;;;;;;;28.73;17.70;;;20.30;57.50;;;;;;5049890;28;20033;-76
2022/11/15 15:00:13;;;;;;;25.77;16.30;;;20.40;58.00;;;;;;5067872;28;20063;-76
2022/11/15 15:02:40;;;;;;;30.67;18.48;;;20.40;58.70;;;;;;5050881;28;20063;-76
2022/11/15 15:05:27;;;;;;;28.63;17.00;;;20.40;59.00;;;;;;5034008;28;20067;-76
2022/11/15 15:07:53;;;;;;;28.17;17.38;;;20.50;59.70;;;;;;5068329;28;20039;-76
2022/11/15 15:10:19;;;;;;;26.77;17.33;;;20.50;59.60;;;;;;5068664;28;20028;-76
2022/11/15 15:12:45;;;;;;;25.48;16.30;;;20.60;59.70;;;;;;5068715;28;20032;-76
2022/11/15 15:15:16;;;;;;;26.80;15.85;;;20.50;59.50;;;;;;5068865;28;20078;-76
2022/11/15 15:17:42;;;;;;;26.77;14.93;;;20.60;60.10;;;;;;5068362;28;20485;-76
2022/11/15 15:20:10;;;;;;;28.17;15.73;;;20.60;60.10;;;;;;5051139;28;20083;-76
2022/11/15 15:22:36;;;;;;;26.40;16.27;;;20.60;60.10;;;;;;5072567;28;20168;-76
2022/11/15 15:25:04;;;;;;;22.02;14.95;;;20.60;60.30;;;;;;5054325;28;20510;-76
2022/11/15 15:27:30;;;;;;;24.20;14.82;;;20.60;60.30;;;;;;5072574;28;20037;-76
2022/11/15 15:29:56;;;;;;;25.17;14.85;;;20.60;60.50;;;;;;5053826;28;20104;-75
2022/11/15 15:32:21;;;;;;;24.50;15.15;;;20.60;60.60;;;;;;5056205;28;20564;-76
2022/11/15 15:34:47;;;;;;;23.65;15.18;;;20.60;60.60;;;;;;5053580;28;20025;-76
2022/11/15 15:37:22;;;;;;;22.30;14.30;;;20.60;60.50;;;;;;5067154;28;20025;-76
2022/11/15 15:39:49;;;;;;;21.67;14.43;;;20.60;60.80;;;;;;5058007;28;20497;-76
2022/11/15 15:42:15;;;;;;;22.38;14.18;;;20.70;60.80;;;;;;5054329;28;20437;-76
2022/11/15 15:44:41;;;;;;;24.35;15.07;;;20.70;61.00;;;;;;5071954;28;20159;-76
2022/11/15 15:47:19;;;;;;;24.73;14.77;;;20.70;61.00;;;;;;5071870;28;20033;-76
2022/11/15 15:49:45;;;;;;;23.48;13.55;;;20.70;60.90;;;;;;5053834;28;20055;-76
2022/11/15 15:52:11;;;;;;;22.73;14.25;;;20.70;61.20;;;;;;5072032;28;20047;-76
2022/11/15 15:54:38;;;;;;;22.38;13.55;;;20.70;60.80;;;;;;5052886;28;20540;-76
2022/11/15 15:57:05;;;;;;;19.60;13.45;;;20.70;61.00;;;;;;5037760;28;20129;-75
2022/11/15 15:59:31;;;;;;;20.80;13.52;;;20.70;61.20;;;;;;5061400;28;20108;-76
2022/11/15 16:01:57;;;;;;;23.70;13.48;;;20.60;61.10;;;;;;5068627;28;20025;-76
2022/11/15 16:04:23;;;;;;;23.33;13.75;;;20.70;61.30;;;;;;5068432;28;20393;-76
2022/11/15 16:06:50;;;;;;;23.60;13.73;;;20.70;61.60;;;;;;5061134;28;20107;-76
2022/11/15 16:09:59;;;;;;;22.65;13.88;;;20.70;61.50;;;;;;5066879;28;20025;-76
2022/11/15 16:12:05;;;;;;;22.38;13.48;;;20.70;61.70;;;;;;5068513;28;20097;-77
2022/11/15 16:14:31;;;;;;;21.92;12.85;;;20.70;61.30;;;;;;5062586;28;20371;-77
2022/11/15 16:16:57;;;;;;;21.63;13.43;;;20.70;62.20;;;;;;5067535;28;20457;-77
2022/11/15 16:19:23;;;;;;;21.02;13.48;;;20.70;61.70;;;;;;5070052;28;20029;-77
2022/11/15 16:21:49;;;;;;;18.75;12.68;;;20.70;61.60;;;;;;5071208;28;20020;-77
2022/11/15 16:24:15;;;;;;;24.52;13.05;;;20.70;61.70;;;;;;5053468;28;20040;-78
2022/11/15 16:26:41;;;;;;;29.38;13.75;;;20.70;61.80;;;;;;5071414;28;20115;-77
2022/11/15 16:29:09;;;;;;;28.85;14.02;;;20.80;62.40;;;;;;5067573;28;20033;-74
2022/11/15 16:31:35;;;;;;;31.98;22.30;;;20.80;62.80;;;;;;5066694;28;20393;-74
2022/11/15 16:34:01;;;;;;;32.17;21.33;;;20.70;60.90;;;;;;5070040;28;20028;-75
2022/11/15 16:36:30;;;;;;;50.13;35.42;;;20.60;59.90;;;;;;5070546;28;20334;-75
2022/11/15 16:38:56;;;;;;;45.72;30.90;;;20.50;58.30;;;;;;5068929;28;20520;-74
2022/11/15 16:41:21;;;;;;;37.47;25.42;;;20.50;58.70;;;;;;5070163;28;20064;-75
2022/11/15 16:43:48;;;;;;;34.95;23.05;;;20.40;58.80;;;;;;5070321;28;20055;-73
2022/11/15 16:46:25;;;;;;;28.42;19.73;;;20.40;59.10;;;;;;5070487;28;20074;-75
2022/11/15 16:48:53;;;;;;;23.45;17.88;;;20.50;58.70;;;;;;5039744;28;20070;-76
2022/11/15 16:51:18;;;;;;;31.60;17.75;;;20.50;58.20;;;;;;5093254;23;20039;-73
2022/11/15 16:53:45;;;;;;;31.48;19.23;;;20.40;57.60;;;;;;5090133;28;20322;-73
2022/11/15 16:56:40;;;;;;;29.98;19.08;;;20.40;57.70;;;;;;5090418;28;20028;-73
2022/11/15 16:59:08;;;;;;;30.27;18.50;;;20.40;58.20;;;;;;5080962;28;20044;-73
2022/11/15 17:01:45;;;;;;;29.75;18.33;;;20.50;58.20;;;;;;5089739;28;20025;-73
2022/11/15 17:04:15;;;;;;;24.77;16.92;;;20.50;58.40;;;;;;5092925;28;20485;-73
2022/11/15 17:06:42;;;;;;;24.58;16.42;;;20.50;58.40;;;;;;5091399;28;20106;-74
2022/11/15 17:09:23;;;;;;;25.90;17.38;;;20.60;58.50;;;;;;5092805;28;20559;-73
2022/11/15 17:11:49;;;;;;;24.33;16.92;;;20.60;58.50;;;;;;5091899;28;20629;-74
2022/11/15 17:14:15;;;;;;;28.75;17.50;;;20.60;58.50;;;;;;5092725;28;20481;-73
2022/11/15 17:16:43;;;;;;;22.95;16.02;;;20.60;58.70;;;;;;5092481;28;20099;-74
2022/11/15 17:19:18;;;;;;;23.08;15.45;;;20.50;58.70;;;;;;5092711;28;20484;-74
2022/11/15 17:21:48;;;;;;;24.02;15.10;;;20.60;58.90;;;;;;5091590;28;20031;-73
2022/11/15 17:24:14;;;;;;;26.40;15.55;;;20.60;58.80;;;;;;5091474;28;20036;-74
2022/11/15 17:26:41;;;;;;;24.20;15.80;;;20.60;59.10;;;;;;5092235;28;20031;-73
2022/11/15 17:29:07;;;;;;;22.67;15.52;;;20.60;58.90;;;;;;5092545;28;20063;-72
2022/11/15 17:31:35;;;;;;;22.42;15.05;;;20.60;59.10;;;;;;5074476;28;20054;-74
2022/11/15 17:34:02;;;;;;;20.65;14.80;;;20.60;59.10;;;;;;5057648;28;20507;-74
2022/11/15 17:36:28;;;;;;;23.00;14.93;;;20.60;59.30;;;;;;5073978;28;20602;-74
2022/11/15 17:38:54;;;;;;;21.80;15.38;;;20.60;59.30;;;;;;5091343;28;20504;-74
2022/11/15 17:41:20;;;;;;;24.05;15.63;;;20.60;59.30;;;;;;5091997;28;20024;-73
2022/11/15 17:43:46;;;;;;;20.70;14.15;;;20.60;59.40;;;;;;5091673;28;20024;-73
2022/11/15 17:46:17;;;;;;;19.35;14.18;;;20.60;59.50;;;;;;5091905;28;20113;-74
2022/11/15 17:48:47;;;;;;;20.83;14.63;;;20.60;59.50;;;;;;5074222;28;20457;-74
2022/11/15 17:51:15;;;;;;;23.13;14.38;;;20.60;59.70;;;;;;5090701;28;20032;-74
2022/11/15 17:53:43;;;;;;;24.45;15.18;;;20.60;59.60;;;;;;5091865;28;20381;-74
2022/11/15 17:56:14;;;;;;;21.00;13.88;;;20.60;59.60;;;;;;5091618;28;20047;-73
2022/11/15 17:58:40;;;;;;;22.17;15.02;;;20.60;59.70;;;;;;5092009;28;20434;-73
2022/11/15 18:01:28;;;;;;;21.73;13.77;;;20.60;59.70;;;;;;5092017;28;20024;-73
2022/11/15 18:03:55;;;;;;;21.63;14.40;;;20.60;59.70;;;;;;5091918;28;20106;-72
2022/11/15 18:06:23;;;;;;;21.60;14.32;;;20.60;59.70;;;;;;5090170;28;20051;-74
2022/11/15 18:08:51;;;;;;;19.83;14.02;;;20.60;59.70;;;;;;5091853;28;20028;-74
2022/11/15 18:11:25;;;;;;;21.77;14.30;;;20.60;60.30;;;;;;5091655;28;20028;-73
2022/11/15 18:13:53;;;;;;;19.95;13.32;;;20.60;59.70;;;;;;5090529;28;20111;-74
2022/11/15 18:16:21;;;;;;;19.25;14.05;;;20.70;59.80;;;;;;5091409;28;20420;-73
2022/11/15 18:18:47;;;;;;;19.58;13.38;;;20.60;60.30;;;;;;5091553;28;20024;-74
2022/11/15 18:21:22;;;;;;;19.02;13.43;;;20.60;59.70;;;;;;5090342;28;20469;-74
2022/11/15 18:23:52;;;;;;;21.98;13.52;;;20.60;59.80;;;;;;5090395;28;20024;-73
2022/11/15 18:26:19;;;;;;;21.45;13.35;;;20.60;59.90;;;;;;5091219;28;20027;-74
2022/11/15 18:28:47;;;;;;;19.67;13.60;;;20.60;59.90;;;;;;5091623;28;20028;-73
2022/11/15 18:31:27;;;;;;;21.30;13.70;;;20.60;60.00;;;;;;5091371;28;20109;-73
2022/11/15 18:33:53;;;;;;;18.48;12.85;;;20.60;60.10;;;;;;5090241;28;20028;-74
2022/11/15 18:36:24;;;;;;;18.77;13.18;;;20.60;60.10;;;;;;5091152;28;20027;-73
2022/11/15 18:38:58;;;;;;;19.40;12.93;;;20.60;60.20;;;;;;5091587;28;20022;-74
2022/11/15 18:41:27;;;;;;;20.73;13.35;;;20.60;60.30;;;;;;5090210;28;20029;-74
2022/11/15 18:43:55;;;;;;;19.17;12.32;;;20.60;60.20;;;;;;5090091;28;20036;-73
2022/11/15 18:46:23;;;;;;;16.70;12.35;;;20.60;60.20;;;;;;5091108;28;20445;-73
2022/11/15 18:48:50;;;;;;;18.13;12.63;;;20.60;60.30;;;;;;5091600;28;20412;-73
2022/11/15 18:51:22;;;;;;;19.83;12.98;;;20.60;60.40;;;;;;5091461;28;20067;-73
2022/11/15 18:53:51;;;;;;;17.33;13.15;;;20.60;60.40;;;;;;5091239;28;20070;-73
2022/11/15 18:56:19;;;;;;;18.03;12.73;;;20.50;60.40;;;;;;5092725;28;20024;-73
2022/11/15 18:58:47;;;;;;;17.52;12.50;;;20.50;60.40;;;;;;5094091;28;20025;-73
2022/11/15 19:01:17;;;;;;;21.35;13.32;;;20.50;60.40;;;;;;5095239;28;20481;-74
2022/11/15 19:03:45;;;;;;;22.00;13.18;;;20.60;60.50;;;;;;5095459;28;20394;-74
2022/11/15 19:06:16;;;;;;;19.13;13.15;;;20.50;60.50;;;;;;5094945;28;20056;-73
2022/11/15 19:08:44;;;;;;;18.52;13.45;;;20.50;60.50;;;;;;5094075;28;20460;-73
2022/11/15 19:11:22;;;;;;;18.38;12.82;;;20.50;60.50;;;;;;5095006;28;20028;-73
2022/11/15 19:14:01;;;;;;;19.00;12.53;;;20.60;60.60;;;;;;5076906;28;20414;-74
2022/11/15 19:16:29;;;;;;;19.27;12.32;;;20.50;60.50;;;;;;5094798;28;20016;-73
2022/11/15 19:19:00;;;;;;;17.55;12.38;;;20.60;60.50;;;;;;5095180;28;20435;-74
2022/11/15 19:21:27;;;;;;;17.90;12.55;;;20.60;60.50;;;;;;5064448;28;20116;-73
2022/11/15 19:23:53;;;;;;;17.35;12.63;;;20.60;60.50;;;;;;5065060;28;20051;-75
2022/11/15 19:26:21;;;;;;;28.25;13.48;;;20.60;60.50;;;;;;5068351;28;20481;-76
2022/11/15 19:29:06;;;;;;;18.55;12.75;;;20.60;61.00;;;;;;5072640;28;20098;-74
2022/11/15 19:31:33;;;;;;;18.00;12.73;;;20.60;60.60;;;;;;5072370;28;20035;-76
2022/11/15 19:34:03;;;;;;;19.58;12.75;;;20.60;60.50;;;;;;5072473;28;20032;-74
2022/11/15 19:36:32;;;;;;;;;;;20.60;60.60;;;;;;5071579;28;20020;-74
2022/11/15 19:39:03;;;;;;;17.98;11.63;;;20.60;60.60;;;;;;5072241;28;19908;-75
2022/11/15 19:41:30;;;;;;;18.05;11.73;;;20.60;60.60;;;;;;5067533;28;20048;-75
2022/11/15 19:43:56;;;;;;;18.38;12.90;;;20.70;60.70;;;;;;5054854;28;20036;-74
2022/11/15 19:46:22;;;;;;;16.83;12.02;;;20.60;60.80;;;;;;5072269;28;20040;-75
2022/11/15 19:48:49;;;;;;;19.05;12.52;;;20.60;60.80;;;;;;5071902;28;20035;-75
2022/11/15 19:51:23;;;;;;;19.42;13.00;;;20.60;60.70;;;;;;5072270;28;20039;-74
2022/11/15 19:53:52;;;;;;;18.70;12.73;;;20.60;60.80;;;;;;5071127;28;20024;-74
2022/11/15 19:56:18;;;;;;;18.20;12.07;;;20.60;60.80;;;;;;5075848;28;20032;-75
2022/11/15 19:58:44;;;;;;;18.58;11.77;;;20.60;61.00;;;;;;5067929;28;20058;-75
2022/11/15 20:01:24;;;;;;;19.35;12.30;;;20.60;61.10;;;;;;5072164;28;20052;-75
2022/11/15 20:03:54;;;;;;;47.28;31.65;;;20.60;60.90;;;;;;5071578;28;20177;-75
2022/11/15 20:06:32;;;;;;;161.32;128.13;;;20.60;60.80;;;;;;5071373;28;20025;-75
2022/11/15 20:08:58;;;;;;;146.77;115.18;;;20.60;60.90;;;;;;5070533;28;20021;-76
2022/11/15 20:11:25;;;;;;;117.20;86.82;;;20.60;61.00;;;;;;5067682;28;20315;-75
2022/11/15 20:13:51;;;;;;;183.98;138.75;;;20.60;61.00;;;;;;5071825;28;20027;-76
2022/11/15 20:16:21;;;;;;;130.05;98.57;;;20.60;61.00;;;;;;5071642;28;20104;-75
2022/11/15 20:18:48;;;;;;;151.40;112.32;;;20.60;61.10;;;;;;5071839;28;20032;-75
2022/11/15 20:21:15;;;;;;;133.52;98.70;;;20.60;61.10;;;;;;5071685;28;20036;-75
2022/11/15 20:23:41;;;;;;;151.43;111.30;;;20.60;61.10;;;;;;5053535;28;20544;-75
2022/11/15 20:26:08;;;;;;;161.98;120.22;;;20.60;61.20;;;;;;5070443;28;20035;-75
2022/11/15 20:28:36;;;;;;;147.00;107.22;;;20.60;61.20;;;;;;5069982;28;20024;-75
2022/11/15 20:31:02;;;;;;;137.35;104.85;;;20.60;61.20;;;;;;5071697;28;20478;-74
2022/11/15 20:33:28;;;;;;;138.65;100.72;;;20.60;61.20;;;;;;5071457;28;20060;-74
2022/11/15 20:35:54;;;;;;;138.43;102.80;;;20.60;61.20;;;;;;5071173;28;20087;-75
2022/11/15 20:38:20;;;;;;;138.57;100.43;;;20.60;61.20;;;;;;5071094;28;20027;-75
2022/11/15 20:40:50;;;;;;;127.55;98.22;;;20.70;61.20;;;;;;5071459;28;20021;-75
2022/11/15 20:43:18;;;;;;;126.97;97.72;;;20.70;61.20;;;;;;5053672;28;20064;-76
2022/11/15 20:45:46;;;;;;;124.55;95.43;;;20.60;61.20;;;;;;5071045;28;20036;-75
2022/11/15 20:48:14;;;;;;;125.97;95.72;;;20.60;61.30;;;;;;5051246;28;20486;-77
2022/11/15 20:50:42;;;;;;;128.07;96.68;;;20.60;61.40;;;;;;5075907;28;20032;-76
2022/11/15 20:53:09;;;;;;;123.28;92.53;;;20.60;61.30;;;;;;5071320;28;20079;-76
2022/11/15 20:55:40;;;;;;;126.53;95.07;;;20.60;61.50;;;;;;5069414;28;20033;-76
2022/11/15 20:58:06;;;;;;;122.18;94.10;;;20.60;61.60;;;;;;5071123;28;20032;-76
2022/11/15 21:00:32;;;;;;;119.57;91.95;;;20.60;61.40;;;;;;5071046;28;20094;-76
2022/11/15 21:02:58;;;;;;;113.07;88.43;;;20.60;61.50;;;;;;5070880;28;20029;-76
2022/11/15 21:05:24;;;;;;;117.65;90.25;;;20.60;61.50;;;;;;5070568;28;20060;-75
2022/11/15 21:07:50;;;;;;;114.43;88.28;;;20.60;61.60;;;;;;5069222;28;20090;-75
2022/11/15 21:13:02;;;;;;;114.78;88.25;;;20.60;61.80;;;;;;5059239;28;20127;-76
2022/11/15 21:15:27;;;;;;;110.45;86.18;;;20.60;61.90;;;;;;5070461;28;20108;-76
2022/11/15 21:17:53;;;;;;;111.50;84.70;;;20.60;61.70;;;;;;5069987;28;20029;-76
2022/11/15 21:20:19;;;;;;;106.20;81.43;;;20.60;61.80;;;;;;5070347;28;20064;-76
2022/11/15 21:22:44;;;;;;;107.70;81.65;;;20.60;61.80;;;;;;5070103;28;20016;-76
2022/11/15 21:25:10;;;;;;;114.47;85.88;;;20.60;62.10;;;;;;5070574;28;20032;-76
2022/11/15 21:27:36;;;;;;;109.20;82.53;;;20.60;61.90;;;;;;5068976;28;20036;-76
2022/11/15 21:30:02;;;;;;;102.13;80.32;;;20.60;61.80;;;;;;5069136;28;20028;-76
2022/11/15 21:32:28;;;;;;;100.05;78.75;;;20.60;61.80;;;;;;5070340;28;20037;-76
2022/11/15 21:34:54;;;;;;;104.72;80.22;;;20.60;62.10;;;;;;5068883;28;20509;-76
2022/11/15 21:37:20;;;;;;;102.60;80.00;;;20.60;61.90;;;;;;5068748;28;20032;-76
2022/11/15 21:39:46;;;;;;;102.35;78.78;;;20.60;62.00;;;;;;5070084;28;20125;-76
2022/11/15 21:42:11;;;;;;;97.45;76.50;;;20.60;62.20;;;;;;5036080;28;20037;-76
2022/11/15 21:44:38;;;;;;;97.53;76.70;;;20.60;62.20;;;;;;5070021;28;20107;-76
2022/11/15 21:47:09;;;;;;;99.90;78.97;;;20.50;61.90;;;;;;5065117;28;20385;-76
2022/11/15 21:49:38;;;;;;;98.80;75.97;;;20.60;62.00;;;;;;5069953;28;20033;-76
2022/11/15 21:52:04;;;;;;;97.05;75.13;;;20.60;62.00;;;;;;5070201;28;20474;-76
2022/11/15 21:54:29;;;;;;;99.63;76.18;;;20.60;61.90;;;;;;5069745;28;20032;-77
2022/11/15 21:56:55;;;;;;;94.78;72.68;;;20.60;61.70;;;;;;5069692;28;20016;-76
2022/11/15 21:59:21;;;;;;;87.55;68.68;;;20.60;61.70;;;;;;5068610;28;20102;-77
2022/11/15 22:04:31;;;;;;;92.53;70.88;;;20.60;61.70;;;;;;5069934;28;20033;-76
2022/11/15 22:06:57;;;;;;;91.68;70.38;;;20.60;61.80;;;;;;5069617;28;20028;-76
2022/11/15 22:09:23;;;;;;;88.82;67.80;;;20.60;61.80;;;;;;5068169;28;20382;-75
2022/11/15 22:11:48;;;;;;;88.88;69.25;;;20.60;61.90;;;;;;5069617;28;20035;-76
2022/11/15 22:14:14;;;;;;;88.47;69.32;;;20.60;61.70;;;;;;5069797;28;20055;-77
2022/11/15 22:16:40;;;;;;;89.35;70.20;;;20.60;61.80;;;;;;5069422;28;20044;-77
2022/11/15 22:19:06;;;;;;;89.20;67.40;;;20.60;62.00;;;;;;5068496;28;20031;-77
2022/11/15 22:21:31;;;;;;;88.28;70.45;;;20.60;62.20;;;;;;5067938;28;20031;-76
2022/11/15 22:23:57;;;;;;;87.60;67.38;;;20.60;62.10;;;;;;5069624;28;20171;-76
2022/11/15 22:26:26;;;;;;;87.90;67.82;;;20.60;62.30;;;;;;5069277;28;20024;-76
2022/11/15 22:28:51;;;;;;;86.47;65.43;;;20.60;62.00;;;;;;5069574;28;20036;-75
2022/11/15 22:31:18;;;;;;;82.10;64.78;;;20.60;62.10;;;;;;5069097;28;20490;-75
2022/11/15 22:33:43;;;;;;;87.00;68.80;;;20.60;62.00;;;;;;5065200;28;20024;-75
2022/11/15 22:36:11;;;;;;;92.45;65.40;;;20.60;62.30;;;;;;5067882;28;20035;-75
2022/11/15 22:38:36;;;;;;;84.72;63.72;;;20.60;61.90;;;;;;5051632;28;20041;-76
2022/11/15 22:41:02;;;;;;;80.68;64.30;;;20.60;62.20;;;;;;5068287;28;20033;-75
2022/11/15 22:43:28;;;;;;;85.38;63.25;;;20.60;62.60;;;;;;5068987;28;20031;-75
2022/11/15 22:45:56;;;;;;;81.65;62.95;;;20.60;62.30;;;;;;5067937;28;20036;-76
2022/11/15 22:48:28;;;;;;;82.78;63.65;;;20.50;62.40;;;;;;5069440;28;20409;-76
2022/11/15 22:50:55;;;;;;;79.55;61.88;;;20.50;62.60;;;;;;5072651;22;20546;-88
2022/11/15 22:53:21;;;;;;;76.38;59.45;;;20.50;62.70;;;;;;5054615;28;20051;-90
2022/11/15 22:55:55;;;;;;;76.95;61.00;;;20.50;62.30;;;;;;5062189;28;20069;-85
2022/11/15 22:58:23;;;;;;;75.50;61.17;;;20.50;62.00;;;;;;5050945;28;20452;-85
2022/11/15 23:00:50;;;;;;;76.97;59.80;;;20.50;62.30;;;;;;5055737;28;20021;-87
2022/11/15 23:03:17;;;;;;;76.93;60.80;;;20.60;62.20;;;;;;5034659;28;20025;-82
2022/11/15 23:05:43;;;;;;;77.53;59.80;;;20.60;62.10;;;;;;5043300;28;20084;-80
2022/11/15 23:08:09;;;;;;;80.80;59.47;;;20.60;62.00;;;;;;5044405;28;20030;-85
2022/11/15 23:13:20;;;;;;;73.30;57.55;;;20.60;62.60;;;;;;5029743;28;20499;-77
2022/11/15 23:18:37;;;;;;;77.35;58.42;;;20.60;62.20;;;;;;5037998;28;20056;-79
2022/11/15 23:24:03;;;;;;;73.00;55.53;;;20.60;62.10;;;;;;5037802;28;20083;-79
2022/11/15 23:26:30;;;;;;;75.38;54.53;;;20.60;62.00;;;;;;5011860;28;20044;-79
2022/11/15 23:28:56;;;;;;;75.55;53.83;;;20.60;62.00;;;;;;5039579;28;20029;-79
2022/11/15 23:34:06;;;;;;;64.05;41.65;;;20.60;61.90;;;;;;5062910;28;20032;-80
2022/11/15 23:36:32;;;;;;;53.75;40.05;;;20.40;58.90;;;;;;5032015;28;20036;-79
2022/11/15 23:38:58;;;;;;;55.90;41.25;;;20.40;58.00;;;;;;5028635;28;20403;-80
2022/11/15 23:41:24;;;;;;;55.25;42.05;;;20.40;58.80;;;;;;5047028;28;20035;-80